createdAt,value
2019-04-07T00:00:39.375Z,11.79
2019-04-07T00:03:08.073Z,11.71
2019-04-07T00:05:36.532Z,11.71
2019-04-07T00:08:05.723Z,11.73
2019-04-07T00:10:34.408Z,11.70
2019-04-07T00:13:03.191Z,11.65
2019-04-07T00:15:32.137Z,11.61
2019-04-07T00:18:00.622Z,11.52
2019-04-07T00:20:29.636Z,11.50
2019-04-07T00:22:58.375Z,11.48
2019-04-07T00:25:26.829Z,11.46
2019-04-07T00:27:55.322Z,11.43
2019-04-07T00:30:23.845Z,11.38
2019-04-07T00:32:52.340Z,11.36
2019-04-07T00:35:26.475Z,11.35
2019-04-07T00:37:50.986Z,11.31
2019-04-07T00:40:19.859Z,11.32
2019-04-07T00:42:48.320Z,11.27
2019-04-07T00:45:17.224Z,11.20
2019-04-07T00:47:46.132Z,11.14
2019-04-07T00:50:16.823Z,11.14
2019-04-07T00:52:45.403Z,11.11
2019-04-07T00:55:14.217Z,11.13
2019-04-07T00:57:42.988Z,11.18
2019-04-07T01:00:12.208Z,11.17
2019-04-07T01:02:41.318Z,11.16
2019-04-07T01:05:10.518Z,11.15
2019-04-07T01:07:39.832Z,11.16
2019-04-07T01:10:08.778Z,11.12
2019-04-07T01:12:37.895Z,11.09
2019-04-07T01:15:07.659Z,11.07
2019-04-07T01:17:36.987Z,11.06
2019-04-07T01:20:06.501Z,11.01
2019-04-07T01:22:34.983Z,10.98
2019-04-07T01:25:03.858Z,10.98
2019-04-07T01:27:32.388Z,10.97
2019-04-07T01:30:00.900Z,10.90
2019-04-07T01:32:29.451Z,10.90
2019-04-07T01:34:58.128Z,10.88
2019-04-07T01:37:27.498Z,10.88
2019-04-07T01:39:56.429Z,10.80
2019-04-07T01:42:44.382Z,10.79
2019-04-07T01:45:22.148Z,10.74
2019-04-07T01:48:13.040Z,10.80
2019-04-07T01:50:59.391Z,10.79
2019-04-07T01:53:44.496Z,10.75
2019-04-07T01:56:27.601Z,10.70
2019-04-07T01:59:24.242Z,10.69
2019-04-07T02:02:00.458Z,10.63
2019-04-07T02:04:41.162Z,10.62
2019-04-07T02:07:17.344Z,10.62
2019-04-07T02:09:59.780Z,10.60
2019-04-07T02:12:38.975Z,10.58
2019-04-07T02:15:45.126Z,10.58
2019-04-07T02:18:18.932Z,10.57
2019-04-07T02:21:05.451Z,10.50
2019-04-07T02:23:51.567Z,10.47
2019-04-07T02:26:40.907Z,10.41
2019-04-07T02:29:27.225Z,10.41
2019-04-07T02:32:02.160Z,10.37
2019-04-07T02:34:49.012Z,10.33
2019-04-07T02:37:35.310Z,10.29
2019-04-07T02:40:13.762Z,10.28
2019-04-07T02:43:16.824Z,10.26
2019-04-07T02:46:03.186Z,10.30
2019-04-07T02:48:42.677Z,10.23
2019-04-07T02:51:36.175Z,10.28
2019-04-07T02:54:22.677Z,10.35
2019-04-07T02:57:00.453Z,10.30
2019-04-07T02:59:42.965Z,10.32
2019-04-07T03:02:23.313Z,10.28
2019-04-07T03:05:26.698Z,10.22
2019-04-07T03:08:18.408Z,10.20
2019-04-07T03:10:59.867Z,10.19
2019-04-07T03:13:46.541Z,10.17
2019-04-07T03:16:49.654Z,10.16
2019-04-07T03:19:26.949Z,10.17
2019-04-07T03:22:03.807Z,10.17
2019-04-07T03:24:40.371Z,10.16
2019-04-07T03:27:21.974Z,10.11
2019-04-07T03:30:03.871Z,10.13
2019-04-07T03:32:45.372Z,10.15
2019-04-07T03:35:25.117Z,10.09
2019-04-07T03:38:20.802Z,10.02
2019-04-07T03:40:56.931Z,9.99
2019-04-07T03:43:42.701Z,10.02
2019-04-07T03:46:30.590Z,9.97
2019-04-07T03:49:06.025Z,9.88
2019-04-07T03:51:39.379Z,9.85
2019-04-07T03:54:36.643Z,9.84
2019-04-07T03:57:23.905Z,9.80
2019-04-07T04:00:10.485Z,9.75
2019-04-07T04:02:54.873Z,9.77
2019-04-07T04:05:37.193Z,9.84
2019-04-07T04:08:21.076Z,9.78
2019-04-07T04:11:02.737Z,9.74
2019-04-07T04:13:42.214Z,9.65
2019-04-07T04:16:14.944Z,9.59
2019-04-07T04:18:43.480Z,9.59
2019-04-07T04:21:12.388Z,9.55
2019-04-07T04:23:43.018Z,9.54
2019-04-07T04:26:11.337Z,9.49
2019-04-07T04:28:39.834Z,9.50
2019-04-07T04:31:08.310Z,9.50
2019-04-07T04:33:37.744Z,9.53
2019-04-07T04:36:07.946Z,9.51
2019-04-07T04:38:36.830Z,9.52
2019-04-07T04:41:05.400Z,9.45
2019-04-07T04:43:34.725Z,9.42
2019-04-07T04:46:03.265Z,9.37
2019-04-07T04:48:32.233Z,9.33
2019-04-07T04:51:00.754Z,9.38
2019-04-07T04:53:30.828Z,9.36
2019-04-07T04:55:59.432Z,9.39
2019-04-07T04:58:28.890Z,9.42
2019-04-07T05:00:57.866Z,9.39
2019-04-07T05:03:27.238Z,9.38
2019-04-07T05:05:56.323Z,9.33
2019-04-07T05:08:24.790Z,9.30
2019-04-07T05:10:53.297Z,9.33
2019-04-07T05:13:22.439Z,9.35
2019-04-07T05:15:51.146Z,9.33
2019-04-07T05:18:20.012Z,9.31
2019-04-07T05:20:48.739Z,9.33
2019-04-07T05:23:18.161Z,9.32
2019-04-07T05:25:46.744Z,9.30
2019-04-07T05:28:15.419Z,9.30
2019-04-07T05:30:44.126Z,9.31
2019-04-07T05:33:13.964Z,9.33
2019-04-07T05:35:42.925Z,9.41
2019-04-07T05:38:11.461Z,9.49
2019-04-07T05:40:40.068Z,9.44
2019-04-07T05:43:08.509Z,9.35
2019-04-07T05:45:37.699Z,9.36
2019-04-07T05:48:06.462Z,9.38
2019-04-07T05:50:35.997Z,9.47
2019-04-07T05:53:06.827Z,9.50
2019-04-07T05:55:34.766Z,9.59
2019-04-07T05:58:06.480Z,9.62
2019-04-07T06:00:34.016Z,9.69
2019-04-07T06:03:06.564Z,9.81
2019-04-07T06:05:33.444Z,9.85
2019-04-07T06:08:18.736Z,9.81
2019-04-07T06:10:33.026Z,9.85
2019-04-07T06:13:02.118Z,9.87
2019-04-07T06:15:31.196Z,9.87
2019-04-07T06:18:01.442Z,9.90
2019-04-07T06:20:30.201Z,9.93
2019-04-07T06:22:59.604Z,9.99
2019-04-07T06:25:33.126Z,10.06
2019-04-07T06:27:58.985Z,10.10
2019-04-07T06:30:30.113Z,10.14
2019-04-07T06:32:58.072Z,10.18
2019-04-07T06:35:26.984Z,10.24
2019-04-07T06:37:57.722Z,10.33
2019-04-07T06:40:25.761Z,10.38
2019-04-07T06:42:54.532Z,10.44
2019-04-07T06:45:26.344Z,10.48
2019-04-07T06:47:57.211Z,10.52
2019-04-07T06:51:03.817Z,10.58
2019-04-07T06:53:50.525Z,10.64
2019-04-07T06:56:33.435Z,10.68
2019-04-07T06:59:20.163Z,10.77
2019-04-07T07:02:00.570Z,10.85
2019-04-07T07:04:49.657Z,10.92
2019-04-07T07:07:47.770Z,10.95
2019-04-07T07:10:29.624Z,11.00
2019-04-07T07:13:11.789Z,11.05
2019-04-07T07:15:51.828Z,11.12
2019-04-07T07:18:29.526Z,11.19
2019-04-07T07:21:03.936Z,11.25
2019-04-07T07:23:36.395Z,11.30
2019-04-07T07:26:04.909Z,11.37
2019-04-07T07:28:33.783Z,11.42
2019-04-07T07:31:02.295Z,11.46
2019-04-07T07:33:30.743Z,11.54
2019-04-07T07:35:59.365Z,11.06
2019-04-07T07:38:32.143Z,11.68
2019-04-07T07:41:01.029Z,11.73
2019-04-07T07:43:29.575Z,11.75
2019-04-07T07:45:59.073Z,11.81
2019-04-07T07:48:28.364Z,11.87
2019-04-07T07:50:56.941Z,11.95
2019-04-07T07:53:28.119Z,11.99
2019-04-07T07:55:55.672Z,12.03
2019-04-07T07:58:27.933Z,12.11
2019-04-07T08:00:54.559Z,12.19
2019-04-07T08:03:23.949Z,12.24
2019-04-07T08:05:53.276Z,12.31
2019-04-07T08:08:21.856Z,12.37
2019-04-07T08:10:50.807Z,12.43
2019-04-07T08:13:20.074Z,12.51
2019-04-07T08:15:49.373Z,12.60
2019-04-07T08:18:19.843Z,12.69
2019-04-07T08:20:48.980Z,12.74
2019-04-07T08:23:17.483Z,12.84
2019-04-07T08:25:46.109Z,12.89
2019-04-07T08:28:14.743Z,12.91
2019-04-07T08:30:46.511Z,12.99
2019-04-07T08:33:13.426Z,13.06
2019-04-07T08:35:42.648Z,13.14
2019-04-07T08:38:11.159Z,13.22
2019-04-07T08:40:40.486Z,13.29
2019-04-07T08:43:08.996Z,13.32
2019-04-07T08:45:38.140Z,13.37
2019-04-07T08:48:07.368Z,13.42
2019-04-07T08:50:36.355Z,13.46
2019-04-07T08:53:04.799Z,13.51
2019-04-07T08:55:33.531Z,13.62
2019-04-07T08:58:04.386Z,13.67
2019-04-07T09:00:34.537Z,13.71
2019-04-07T09:03:10.586Z,13.77
2019-04-07T09:05:33.527Z,13.84
2019-04-07T09:08:05.587Z,13.88
2019-04-07T09:10:37.344Z,13.94
2019-04-07T09:13:08.365Z,13.98
2019-04-07T09:15:48.852Z,14.08
2019-04-07T09:18:21.428Z,14.16
2019-04-07T09:21:12.184Z,14.23
2019-04-07T09:23:55.707Z,14.35
2019-04-07T09:26:34.366Z,13.93
2019-04-07T09:29:27.973Z,14.51
2019-04-07T09:32:02.285Z,14.57
2019-04-07T09:34:50.542Z,14.61
2019-04-07T09:37:26.303Z,14.66
2019-04-07T09:40:16.403Z,14.72
2019-04-07T09:42:51.939Z,14.79
2019-04-07T09:45:38.594Z,14.84
2019-04-07T09:48:41.414Z,14.87
2019-04-07T09:51:29.799Z,14.95
2019-04-07T09:54:10.073Z,15.12
2019-04-07T09:56:56.208Z,15.27
2019-04-07T09:59:59.421Z,15.29
2019-04-07T10:02:42.688Z,15.41
2019-04-07T10:05:30.851Z,15.50
2019-04-07T10:08:21.689Z,15.49
2019-04-07T10:11:09.704Z,15.56
2019-04-07T10:13:53.089Z,15.61
2019-04-07T10:16:41.920Z,15.67
2019-04-07T10:19:18.087Z,15.78
2019-04-07T10:22:00.587Z,15.86
2019-04-07T10:24:49.542Z,15.85
2019-04-07T10:27:33.912Z,15.93
2019-04-07T10:30:21.502Z,16.06
2019-04-07T10:33:07.836Z,16.12
2019-04-07T10:35:59.671Z,16.25
2019-04-07T10:38:54.175Z,16.32
2019-04-07T10:41:40.881Z,16.33
2019-04-07T10:44:27.403Z,16.38
2019-04-07T10:47:27.989Z,16.58
2019-04-07T10:50:08.899Z,16.61
2019-04-07T10:52:59.264Z,16.65
2019-04-07T10:55:41.890Z,16.66
2019-04-07T10:58:21.960Z,16.72
2019-04-07T11:01:25.535Z,16.69
2019-04-07T11:04:16.988Z,16.76
2019-04-07T11:07:04.171Z,16.97
2019-04-07T11:09:57.674Z,17.16
2019-04-07T11:12:37.863Z,17.19
2019-04-07T11:15:27.062Z,17.33
2019-04-07T11:18:19.026Z,17.36
2019-04-07T11:20:56.180Z,17.41
2019-04-07T11:23:34.880Z,17.41
2019-04-07T11:26:11.287Z,17.48
2019-04-07T11:28:48.041Z,17.54
2019-04-07T11:31:39.282Z,17.57
2019-04-07T11:34:27.105Z,17.63
2019-04-07T11:37:06.301Z,17.77
2019-04-07T11:39:59.039Z,17.91
2019-04-07T11:42:52.465Z,17.95
2019-04-07T11:45:59.138Z,18.05
2019-04-07T11:48:34.894Z,18.10
2019-04-07T11:51:09.610Z,18.27
2019-04-07T11:54:13.018Z,18.46
2019-04-07T11:56:48.094Z,18.50
2019-04-07T11:59:37.809Z,18.60
2019-04-07T12:02:24.420Z,18.64
2019-04-07T12:05:11.745Z,18.65
2019-04-07T12:07:56.739Z,18.73
2019-04-07T12:10:54.935Z,18.87
2019-04-07T12:13:21.114Z,18.99
2019-04-07T12:16:11.403Z,19.06
2019-04-07T12:19:14.313Z,19.09
2019-04-07T12:21:48.121Z,19.03
2019-04-07T12:24:34.759Z,19.05
2019-04-07T12:27:31.530Z,19.18
2019-04-07T12:30:06.589Z,19.31
2019-04-07T12:32:43.839Z,19.48
2019-04-07T12:35:28.873Z,19.55
2019-04-07T12:38:12.257Z,19.64
2019-04-07T12:41:14.272Z,19.79
2019-04-07T12:43:50.603Z,19.91
2019-04-07T12:46:24.672Z,19.98
2019-04-07T12:49:12.251Z,20.04
2019-04-07T12:52:00.999Z,20.06
2019-04-07T12:54:47.143Z,20.05
2019-04-07T12:57:28.771Z,20.19
2019-04-07T13:00:07.616Z,20.30
2019-04-07T13:02:56.758Z,20.43
2019-04-07T13:05:44.358Z,20.45
2019-04-07T13:08:35.397Z,20.44
2019-04-07T13:11:13.128Z,20.32
2019-04-07T13:14:15.151Z,20.30
2019-04-07T13:17:02.716Z,20.35
2019-04-07T13:19:46.088Z,20.55
2019-04-07T13:22:32.543Z,20.71
2019-04-07T13:25:20.200Z,20.82
2019-04-07T13:28:21.845Z,20.87
2019-04-07T13:31:08.015Z,20.89
2019-04-07T13:34:01.056Z,21.05
2019-04-07T13:36:51.898Z,21.11
2019-04-07T13:39:40.286Z,21.18
2019-04-07T13:42:24.862Z,21.19
2019-04-07T13:45:16.871Z,21.15
2019-04-07T13:47:52.394Z,21.02
2019-04-07T13:50:35.939Z,20.98
2019-04-07T13:53:42.151Z,20.93
2019-04-07T13:56:19.533Z,20.87
2019-04-07T13:59:10.135Z,20.89
2019-04-07T14:01:52.457Z,20.94
2019-04-07T14:04:39.314Z,21.02
2019-04-07T14:07:42.787Z,21.06
2019-04-07T14:10:17.085Z,21.09
2019-04-07T14:13:03.516Z,21.11
2019-04-07T14:15:48.524Z,21.13
2019-04-07T14:18:29.947Z,21.13
2019-04-07T14:21:18.078Z,21.15
2019-04-07T14:23:55.719Z,21.03
2019-04-07T14:26:31.257Z,21.05
2019-04-07T14:29:24.889Z,21.04
2019-04-07T14:32:04.477Z,21.02
2019-04-07T14:34:51.036Z,21.01
2019-04-07T14:37:44.644Z,21.06
2019-04-07T14:40:20.396Z,21.15
2019-04-07T14:43:08.131Z,21.22
2019-04-07T14:45:52.633Z,21.29
2019-04-07T14:48:40.311Z,21.27
2019-04-07T14:51:24.090Z,21.20
2019-04-07T14:54:08.905Z,21.06
2019-04-07T14:57:03.248Z,20.95
2019-04-07T14:59:52.115Z,20.81
2019-04-07T15:02:20.277Z,20.86
2019-04-07T15:04:59.542Z,20.80
2019-04-07T15:07:57.917Z,20.62
2019-04-07T15:10:28.904Z,20.60
2019-04-07T15:13:03.289Z,20.66
2019-04-07T15:15:32.441Z,20.76
2019-04-07T15:18:01.751Z,20.76
2019-04-07T15:20:31.100Z,20.81
2019-04-07T15:23:00.585Z,20.86
2019-04-07T15:25:29.813Z,20.95
2019-04-07T15:27:59.836Z,20.93
2019-04-07T15:30:28.491Z,20.99
2019-04-07T15:32:59.501Z,20.96
2019-04-07T15:35:27.585Z,20.88
2019-04-07T15:37:57.010Z,20.75
2019-04-07T15:40:25.691Z,20.54
2019-04-07T15:42:54.446Z,20.49
2019-04-07T15:45:23.473Z,20.53
2019-04-07T15:47:53.892Z,20.63
2019-04-07T15:50:22.653Z,20.74
2019-04-07T15:52:51.203Z,20.85
2019-04-07T15:55:19.778Z,20.96
2019-04-07T15:57:49.177Z,21.06
2019-04-07T16:00:19.529Z,21.16
2019-04-07T16:02:49.993Z,21.23
2019-04-07T16:05:18.368Z,21.31
2019-04-07T16:07:46.828Z,21.35
2019-04-07T16:10:15.544Z,21.40
2019-04-07T16:12:50.775Z,21.41
2019-04-07T16:15:16.513Z,21.31
2019-04-07T16:17:47.201Z,21.27
2019-04-07T16:20:23.232Z,21.25
2019-04-07T16:22:47.807Z,21.18
2019-04-07T16:25:15.497Z,21.15
2019-04-07T16:27:44.625Z,20.96
2019-04-07T16:30:15.776Z,20.88
2019-04-07T16:32:43.600Z,20.82
2019-04-07T16:35:15.591Z,20.77
2019-04-07T16:37:43.650Z,20.75
2019-04-07T16:40:13.088Z,20.67
2019-04-07T16:42:45.662Z,20.58
2019-04-07T16:45:16.437Z,20.52
2019-04-07T16:47:42.275Z,20.39
2019-04-07T16:50:11.133Z,20.29
2019-04-07T16:52:39.896Z,20.10
2019-04-07T16:55:28.573Z,19.98
2019-04-07T16:57:59.409Z,19.82
2019-04-07T17:00:28.001Z,19.64
2019-04-07T17:02:56.914Z,19.52
2019-04-07T17:05:25.678Z,19.42
2019-04-07T17:07:56.009Z,19.33
2019-04-07T17:10:28.744Z,19.34
2019-04-07T17:12:54.744Z,19.27
2019-04-07T17:15:23.264Z,19.24
2019-04-07T17:17:53.387Z,19.24
2019-04-07T17:20:25.693Z,19.18
2019-04-07T17:22:52.992Z,19.01
2019-04-07T17:25:21.733Z,18.89
2019-04-07T17:27:50.889Z,18.76
2019-04-07T17:30:20.013Z,18.67
2019-04-07T17:32:50.159Z,18.58
2019-04-07T17:35:18.928Z,18.51
2019-04-07T17:37:47.488Z,18.43
2019-04-07T17:40:17.616Z,18.40
2019-04-07T17:42:51.674Z,18.32
2019-04-07T17:45:54.657Z,18.20
2019-04-07T17:48:49.450Z,18.08
2019-04-07T17:51:27.660Z,17.94
2019-04-07T17:54:21.568Z,17.77
2019-04-07T17:56:56.853Z,17.66
2019-04-07T17:59:44.878Z,17.56
2019-04-07T18:02:34.896Z,17.47
2019-04-07T18:05:24.274Z,17.39
2019-04-07T18:08:20.441Z,17.29
2019-04-07T18:11:07.558Z,17.21
2019-04-07T18:13:56.645Z,17.15
2019-04-07T18:16:42.953Z,17.08
2019-04-07T18:19:36.343Z,17.01
2019-04-07T18:22:24.566Z,16.96
2019-04-07T18:24:59.670Z,16.86
2019-04-07T18:27:34.479Z,16.78
2019-04-07T18:30:31.509Z,16.75
2019-04-07T18:33:29.474Z,16.69
2019-04-07T18:36:15.768Z,16.61
2019-04-07T18:38:53.806Z,16.51
2019-04-07T18:41:40.386Z,16.46
2019-04-07T18:44:18.337Z,16.42
2019-04-07T18:47:15.334Z,16.34
2019-04-07T18:50:09.088Z,16.20
2019-04-07T18:52:45.641Z,16.09
2019-04-07T18:55:32.158Z,16.06
2019-04-07T18:58:07.592Z,16.05
2019-04-07T19:00:50.578Z,16.02
2019-04-07T19:03:41.803Z,16.00
2019-04-07T19:06:33.295Z,15.95
2019-04-07T19:09:20.751Z,15.89
2019-04-07T19:12:14.244Z,15.85
2019-04-07T19:14:55.976Z,15.79
2019-04-07T19:17:34.822Z,15.75
2019-04-07T19:20:20.443Z,15.70
2019-04-07T19:23:00.183Z,15.62
2019-04-07T19:25:44.433Z,15.56
2019-04-07T19:28:29.531Z,15.52
2019-04-07T19:31:08.668Z,15.43
2019-04-07T19:33:57.251Z,15.38
2019-04-07T19:36:42.793Z,15.35
2019-04-07T19:39:28.325Z,15.26
2019-04-07T19:42:07.504Z,15.20
2019-04-07T19:44:53.215Z,15.14
2019-04-07T19:47:41.535Z,15.12
2019-04-07T19:50:29.318Z,15.08
2019-04-07T19:53:22.910Z,15.03
2019-04-07T19:55:59.467Z,14.98
2019-04-07T19:58:39.305Z,14.99
2019-04-07T20:01:31.572Z,14.90
2019-04-07T20:04:28.443Z,14.85
2019-04-07T20:07:11.307Z,14.82
2019-04-07T20:10:01.822Z,14.81
2019-04-07T20:12:48.339Z,14.73
2019-04-07T20:15:38.062Z,14.65
2019-04-07T20:18:08.556Z,14.62
2019-04-07T20:20:44.888Z,14.61
2019-04-07T20:23:35.783Z,14.52
2019-04-07T20:26:18.623Z,14.48
2019-04-07T20:28:57.320Z,14.43
2019-04-07T20:31:51.991Z,14.40
2019-04-07T20:34:40.393Z,14.34
2019-04-07T20:37:27.799Z,14.29
2019-04-07T20:40:22.279Z,14.30
2019-04-07T20:43:00.468Z,14.33
2019-04-07T20:45:41.087Z,14.31
2019-04-07T20:48:31.598Z,14.26
2019-04-07T20:51:04.640Z,14.17
2019-04-07T20:54:03.463Z,14.11
2019-04-07T20:56:49.834Z,14.06
2019-04-07T20:59:48.595Z,14.04
2019-04-07T21:02:33.746Z,14.04
2019-04-07T21:05:18.693Z,14.00
2019-04-07T21:08:06.277Z,13.91
2019-04-07T21:10:52.783Z,13.83
2019-04-07T21:13:39.564Z,13.78
2019-04-07T21:16:29.831Z,13.71
2019-04-07T21:19:07.749Z,13.69
2019-04-07T21:21:56.344Z,13.62
2019-04-07T21:24:43.873Z,13.54
2019-04-07T21:27:36.108Z,13.51
2019-04-07T21:30:15.117Z,13.46
2019-04-07T21:33:05.449Z,13.40
2019-04-07T21:35:44.771Z,13.37
2019-04-07T21:38:29.840Z,13.35
2019-04-07T21:41:21.107Z,13.39
2019-04-07T21:44:05.989Z,13.36
2019-04-07T21:46:51.679Z,13.28
2019-04-07T21:49:32.760Z,13.19
2019-04-07T21:52:23.045Z,13.10
2019-04-07T21:54:57.807Z,13.07
2019-04-07T21:57:57.091Z,13.04
2019-04-07T22:00:41.881Z,13.05
2019-04-07T22:03:33.167Z,12.98
2019-04-07T22:06:11.804Z,12.91
2019-04-07T22:08:51.817Z,12.89
2019-04-07T22:11:24.660Z,12.87
2019-04-07T22:13:51.240Z,12.86
2019-04-07T22:16:22.997Z,12.90
2019-04-07T22:18:51.214Z,12.90
2019-04-07T22:21:22.298Z,12.87
2019-04-07T22:23:50.706Z,12.86
2019-04-07T22:26:20.238Z,12.90
2019-04-07T22:28:48.925Z,12.86
2019-04-07T22:31:23.223Z,12.80
2019-04-07T22:33:55.528Z,12.74
2019-04-07T22:36:21.903Z,12.72
2019-04-07T22:38:54.378Z,12.63
2019-04-07T22:41:20.623Z,12.61
2019-04-07T22:43:50.848Z,12.50
2019-04-07T22:46:24.533Z,12.48
2019-04-07T22:48:50.176Z,12.45
2019-04-07T22:51:19.040Z,12.34
2019-04-07T22:53:47.647Z,12.29
2019-04-07T22:56:16.142Z,12.26
2019-04-07T22:58:44.603Z,12.27
2019-04-07T23:01:13.121Z,12.20
2019-04-07T23:03:41.580Z,12.14
2019-04-07T23:06:10.626Z,12.11
2019-04-07T23:08:39.117Z,12.17
2019-04-07T23:11:08.453Z,12.21
2019-04-07T23:13:37.624Z,12.15
2019-04-07T23:16:12.898Z,12.10
2019-04-07T23:18:36.333Z,12.09
2019-04-07T23:21:05.175Z,12.12
2019-04-07T23:23:34.454Z,12.11
2019-04-07T23:26:03.197Z,12.10
2019-04-07T23:28:32.675Z,12.03
2019-04-07T23:31:01.483Z,12.00
2019-04-07T23:33:29.976Z,11.99
2019-04-07T23:35:59.725Z,11.96
2019-04-07T23:38:28.927Z,11.92
2019-04-07T23:40:57.789Z,11.89
2019-04-07T23:43:27.116Z,11.91
2019-04-07T23:45:55.946Z,11.89
2019-04-07T23:48:24.468Z,11.89
2019-04-07T23:50:52.947Z,11.89
2019-04-07T23:53:58.066Z,11.82
2019-04-07T23:56:27.308Z,11.79
2019-04-07T23:58:56.294Z,11.72
